Dagenham, United Kingdom
Current Conditions -  °F | °C
As of 8:20 AM on Saturday 27 Dec 2014 (Local Time) from EGLC Reporting Station
Light Rain Light Rain  
Wind Chill: 30°   Ceiling: 1400
Heat Index: 39°   Visibility: 6mi
Dew Point: 36°   Wind: 20mph
Humidity: 87%   Direction: 330°NNW
Pressure: 29.71"   Gusts: 32mph
Location:  51.54°N, 0.15°E
Report Text: EGLC 270820Z 33017G28KT 9999 -RADZ BKN014 04/02 Q1006
Loading
Personal Weather Stations






























Interactive Weather Map New forecast layout! Learn more

10-Day Weather Forecast

Advertisements
Track Severe Weather on mobile